Time;durP1;ratioP1;P1;durP2;ratioP2;P2;SDS_P1;SDS_P2;PMS_P1;PMS_P2;Temp;Humidity;BMP_temperature;BMP_pressure;BME280_temperature;BME280_humidity;BME280_pressure;Samples;Min_cycle;Max_cycle;Signal;HPM_P1;HPM_P2
2021/10/01 00:01:38;;;;;;;;;4.50;4.50;;;;;12.29;65.57;101898.28;4965539;28;45408;-70
2021/10/01 00:04:04;;;;;;;;;5.00;5.00;;;;;12.27;65.57;101895.69;4974605;28;45281;-70
2021/10/01 00:06:29;;;;;;;;;5.25;4.00;;;;;12.23;65.82;101886.16;4973492;28;45522;-71
2021/10/01 00:08:55;;;;;;;;;8.25;4.25;;;;;12.19;65.54;101884.53;4968469;28;45834;-70
2021/10/01 00:11:21;;;;;;;;;8.25;5.75;;;;;12.18;65.74;101881.94;4965807;28;45644;-70
2021/10/01 00:13:47;;;;;;;;;4.75;4.00;;;;;12.14;66.05;101875.03;4971741;28;45556;-70
2021/10/01 00:16:13;;;;;;;;;5.00;4.75;;;;;12.13;65.82;101883.88;4975473;28;45619;-70
2021/10/01 00:18:38;;;;;;;;;5.75;4.50;;;;;12.08;65.84;101886.63;4969514;28;46390;-70
2021/10/01 00:21:04;;;;;;;;;3.50;3.00;;;;;12.07;66.26;101876.16;4969197;28;46240;-70
2021/10/01 00:23:30;;;;;;;;;3.25;3.25;;;;;12.05;66.09;101873.53;4963877;28;45423;-70
2021/10/01 00:25:55;;;;;;;;;4.00;3.00;;;;;12.04;65.83;101874.47;4975430;28;45273;-70
2021/10/01 00:28:21;;;;;;;;;2.75;2.75;;;;;12.02;65.88;101865.75;4972815;28;46021;-70
2021/10/01 00:30:46;;;;;;;;;4.00;4.00;;;;;11.98;66.00;101862.34;4970600;28;45464;-70
2021/10/01 00:33:12;;;;;;;;;3.00;2.25;;;;;12.02;65.35;101868.38;4973328;28;45608;-70
2021/10/01 00:35:37;;;;;;;;;3.00;3.00;;;;;11.95;66.13;101854.53;4973609;28;45617;-70
2021/10/01 00:38:03;;;;;;;;;2.25;2.25;;;;;12.00;65.38;101862.28;4968762;28;46355;-70
2021/10/01 00:40:28;;;;;;;;;3.00;3.00;;;;;12.04;65.57;101863.06;4971135;28;45242;-70
2021/10/01 00:42:53;;;;;;;;;1.75;1.00;;;;;12.04;65.50;101853.38;4972945;28;45435;-70
2021/10/01 00:45:19;;;;;;;;;1.75;1.75;;;;;12.06;65.17;101854.22;4974565;28;45328;-70
2021/10/01 00:47:44;;;;;;;;;1.75;1.75;;;;;12.00;64.92;101833.31;4974260;28;45455;-70
2021/10/01 00:50:10;;;;;;;;;1.25;1.00;;;;;12.07;64.51;101836.63;4963729;28;45395;-70
2021/10/01 00:52:35;;;;;;;;;2.25;2.00;;;;;12.17;64.21;101844.19;4971957;28;45580;-70
2021/10/01 00:55:01;;;;;;;;;2.00;1.25;;;;;12.18;63.44;101842.41;4971028;28;45413;-70
2021/10/01 00:57:27;;;;;;;;;4.00;2.00;;;;;12.27;64.05;101845.63;4971908;28;45573;-70
2021/10/01 00:59:52;;;;;;;;;1.75;1.00;;;;;12.28;64.00;101842.06;4974279;28;45380;-71
2021/10/01 01:02:18;;;;;;;;;3.00;1.00;;;;;12.32;64.25;101847.22;4964891;28;45998;-70
2021/10/01 01:04:46;;;;;;;;;2.75;2.00;;;;;12.31;64.02;101840.22;4973460;28;45520;-71
2021/10/01 01:07:37;;;;;;;;;3.00;1.25;;;;;12.30;64.55;101849.06;4971217;28;45491;-70
2021/10/01 01:10:10;;;;;;;;;1.00;1.00;;;;;12.33;64.32;101843.69;4970176;28;45511;-70
2021/10/01 01:12:46;;;;;;;;;2.25;1.50;;;;;12.30;64.08;101841.16;4986081;28;45617;-70
2021/10/01 01:15:31;;;;;;;;;3.00;1.00;;;;;12.32;64.48;101841.94;4965331;28;45448;-70
2021/10/01 01:18:06;;;;;;;;;1.00;1.00;;;;;12.31;64.26;101834.97;4970220;28;46168;-70
2021/10/01 01:20:35;;;;;;;;;2.25;1.00;;;;;12.34;63.63;101830.47;4970671;28;45575;-70
2021/10/01 01:23:13;;;;;;;;;2.50;1.50;;;;;12.35;63.98;101828.69;4960339;28;45387;-70
2021/10/01 01:26:07;;;;;;;;;1.00;1.00;;;;;12.33;63.80;101818.19;4963077;28;45683;-70
2021/10/01 01:28:54;;;;;;;;;1.50;1.00;;;;;12.35;64.00;101821.63;4968080;28;45413;-70
2021/10/01 01:31:44;;;;;;;;;1.00;1.00;;;;;12.33;64.24;101822.63;4966130;28;45461;-70
2021/10/01 01:34:17;;;;;;;;;3.00;2.00;;;;;12.29;64.46;101811.31;4970629;28;45675;-70
2021/10/01 01:36:43;;;;;;;;;1.50;0.00;;;;;12.28;64.20;101813.06;4974591;28;45448;-71
2021/10/01 01:39:11;;;;;;;;;1.75;0.75;;;;;12.30;64.63;101809.53;4970622;28;45586;-70
2021/10/01 01:41:37;;;;;;;;;1.00;1.00;;;;;12.23;64.48;101799.19;4963282;28;45656;-71
2021/10/01 01:44:04;;;;;;;;;1.00;1.00;;;;;12.25;64.38;101799.13;4974419;28;45221;-71
2021/10/01 01:46:30;;;;;;;;;1.50;1.50;;;;;12.26;64.10;101803.47;4977610;28;45472;-71
2021/10/01 01:48:58;;;;;;;;;1.00;1.00;;;;;12.26;63.86;101804.34;4970189;28;45423;-71
2021/10/01 01:51:24;;;;;;;;;1.00;1.00;;;;;12.28;63.84;101799.03;4972861;28;46014;-70
2021/10/01 01:53:51;;;;;;;;;2.50;1.00;;;;;12.25;64.41;101794.72;4971441;28;45568;-70
2021/10/01 01:56:18;;;;;;;;;1.00;1.00;;;;;12.28;64.53;101794.63;4968410;28;47429;-70
2021/10/01 01:58:45;;;;;;;;;0.25;0.25;;;;;12.27;64.26;101790.28;4970593;28;46114;-70
2021/10/01 02:01:11;;;;;;;;;2.50;2.00;;;;;12.28;64.29;101785.88;4961612;28;45406;-70
2021/10/01 02:03:38;;;;;;;;;2.00;2.00;;;;;12.26;64.47;101777.97;4973546;28;45452;-71
2021/10/01 02:06:05;;;;;;;;;3.00;1.25;;;;;12.26;64.59;101777.97;4974283;28;45646;-71
2021/10/01 02:08:33;;;;;;;;;1.50;1.25;;;;;12.24;64.76;101765.78;4967288;28;45329;-70
2021/10/01 02:11:00;;;;;;;;;2.50;2.50;;;;;12.23;64.42;101770.19;4973051;28;45931;-70
2021/10/01 02:13:26;;;;;;;;;2.00;2.00;;;;;12.16;64.34;101762.53;4976369;28;45375;-70
2021/10/01 02:15:54;;;;;;;;;3.00;1.00;;;;;12.23;65.06;101769.34;4973249;28;45464;-70
2021/10/01 02:18:24;;;;;;;;;0.50;0.50;;;;;12.20;64.63;101759.75;4968558;28;46949;-70
2021/10/01 02:20:51;;;;;;;;;0.25;0.25;;;;;12.15;64.17;101752.91;4977930;28;45889;-70
2021/10/01 02:23:17;;;;;;;;;3.25;2.00;;;;;12.18;64.56;101758.94;4976701;28;45663;-70
2021/10/01 02:28:34;;;;;;;;;2.00;2.00;;;;;12.17;64.39;101749.31;4974164;28;45828;-71
2021/10/01 02:31:02;;;;;;;;;2.50;2.00;;;;;12.16;64.66;101750.25;4972698;28;45875;-71
2021/10/01 02:33:40;;;;;;;;;1.00;1.00;;;;;12.14;64.54;101744.13;4973442;28;45569;-71
2021/10/01 02:36:07;;;;;;;;;0.75;0.75;;;;;12.11;64.60;101736.34;4966312;28;45509;-71
2021/10/01 02:38:33;;;;;;;;;1.00;1.00;;;;;12.10;64.34;101731.13;4985141;28;46437;-71
2021/10/01 02:40:58;;;;;;;;;1.50;1.50;;;;;12.08;64.58;101732.94;4974654;28;45353;-71
2021/10/01 02:43:23;;;;;;;;;1.00;1.00;;;;;12.09;64.60;101738.16;4975736;28;45916;-71
2021/10/01 02:45:49;;;;;;;;;1.50;1.50;;;;;12.06;64.99;101733.00;4976464;28;45461;-71
2021/10/01 02:48:14;;;;;;;;;1.00;1.00;;;;;12.05;65.19;101727.78;4970197;28;45586;-70
2021/10/01 02:50:42;;;;;;;;;0.75;0.75;;;;;12.05;65.10;101725.13;4974111;28;45265;-71
2021/10/01 02:53:16;;;;;;;;;2.50;2.00;;;;;12.01;64.94;101721.75;4975319;28;45509;-71
2021/10/01 02:56:03;;;;;;;;;1.00;1.00;;;;;12.03;65.18;101717.28;4969347;28;45464;-71
2021/10/01 02:58:44;;;;;;;;;1.00;1.00;;;;;12.03;64.93;101717.28;4972171;28;45400;-71
2021/10/01 03:01:11;;;;;;;;;1.00;1.00;;;;;12.00;65.16;101723.50;4973317;28;45716;-71
2021/10/01 03:03:44;;;;;;;;;1.25;1.25;;;;;11.99;65.05;101713.88;4973323;28;45888;-71
2021/10/01 03:06:10;;;;;;;;;0.00;0.00;;;;;11.93;65.14;101706.19;4975988;28;45458;-70
2021/10/01 03:08:37;;;;;;;;;1.50;0.00;;;;;11.93;65.60;101700.94;4965879;28;46366;-70
2021/10/01 03:11:10;;;;;;;;;2.00;0.75;;;;;11.95;65.12;101699.13;4973056;28;45700;-71
2021/10/01 03:13:37;;;;;;;;;2.00;2.00;;;;;11.95;65.55;101706.13;4976740;28;45459;-70
2021/10/01 03:16:03;;;;;;;;;1.00;1.00;;;;;11.95;65.71;101700.88;4970005;28;45416;-71
2021/10/01 03:18:29;;;;;;;;;0.50;0.50;;;;;11.94;65.53;101699.16;4976120;28;46192;-70
2021/10/01 03:20:56;;;;;;;;;3.00;1.25;;;;;11.91;65.75;101694.88;4961552;28;45451;-70
2021/10/01 03:23:23;;;;;;;;;1.00;1.00;;;;;11.88;65.75;101700.22;4966357;28;45471;-71
2021/10/01 03:25:51;;;;;;;;;2.00;1.25;;;;;11.87;65.98;101697.66;4963722;28;45187;-71
2021/10/01 03:28:17;;;;;;;;;1.00;1.00;;;;;11.86;65.56;101685.41;4975770;28;45706;-71
2021/10/01 03:30:45;;;;;;;;;1.50;1.00;;;;;11.85;65.70;101691.53;4970668;28;45385;-71
2021/10/01 03:33:11;;;;;;;;;0.00;0.00;;;;;11.83;66.22;101688.97;4967215;28;45520;-71
2021/10/01 03:35:39;;;;;;;;;2.00;2.00;;;;;11.80;65.91;101681.16;4974804;28;45417;-71
2021/10/01 03:38:05;;;;;;;;;1.50;1.00;;;;;11.78;66.17;101680.31;4969862;28;46539;-70
2021/10/01 03:40:31;;;;;;;;;4.00;1.50;;;;;11.80;66.24;101678.53;4975877;28;45537;-70
2021/10/01 03:42:57;;;;;;;;;3.00;1.75;;;;;11.80;66.45;101681.16;4975286;28;45567;-70
2021/10/01 03:45:22;;;;;;;;;2.50;1.00;;;;;11.77;66.34;101678.63;4968598;28;45445;-71
2021/10/01 03:47:48;;;;;;;;;2.00;2.00;;;;;11.77;66.16;101681.25;4990261;28;46871;-71
2021/10/01 03:50:13;;;;;;;;;1.00;1.00;;;;;11.76;66.39;101679.53;4990265;28;45576;-71
2021/10/01 03:52:38;;;;;;;;;1.00;1.00;;;;;11.74;66.41;101674.31;4975309;28;45306;-71
2021/10/01 03:55:05;;;;;;;;;2.00;2.00;;;;;11.71;66.90;101663.88;4974828;28;45343;-71
2021/10/01 03:57:31;;;;;;;;;1.50;0.75;;;;;11.68;66.50;101665.75;4969866;28;46599;-71
2021/10/01 03:59:57;;;;;;;;;2.00;1.75;;;;;11.66;66.73;101665.78;4963865;28;45499;-70
2021/10/01 04:02:22;;;;;;;;;1.00;1.00;;;;;11.65;66.81;101666.72;4972449;28;45502;-70
2021/10/01 04:04:47;;;;;;;;;3.00;1.00;;;;;11.63;67.22;101659.75;4973167;28;45526;-70
2021/10/01 04:07:13;;;;;;;;;2.50;1.00;;;;;11.60;66.94;101651.97;4969350;28;46253;-70
2021/10/01 04:09:38;;;;;;;;;1.75;1.00;;;;;11.61;66.97;101659.81;4976167;28;45485;-70
2021/10/01 04:12:04;;;;;;;;;1.00;1.00;;;;;11.59;67.11;101663.41;4973935;28;47627;-70
2021/10/01 04:14:30;;;;;;;;;1.00;1.00;;;;;11.58;67.24;101662.53;4970910;28;45534;-70
2021/10/01 04:16:55;;;;;;;;;3.00;2.00;;;;;11.53;67.47;101648.66;4971277;28;45824;-70
2021/10/01 04:19:20;;;;;;;;;1.00;1.00;;;;;11.54;67.47;101655.69;4964702;28;45425;-70
2021/10/01 04:21:46;;;;;;;;;1.50;1.50;;;;;11.54;67.50;101653.03;4970490;28;45395;-71
2021/10/01 04:24:12;;;;;;;;;2.25;1.50;;;;;11.53;67.37;101648.66;4974348;28;45522;-70
2021/10/01 04:26:37;;;;;;;;;2.25;2.25;;;;;11.52;67.14;101646.09;4970973;28;47047;-70
2021/10/01 04:29:04;;;;;;;;;1.50;1.00;;;;;11.48;67.47;101646.22;4965248;28;45441;-70
2021/10/01 04:31:29;;;;;;;;;1.50;1.50;;;;;11.48;66.78;101645.31;4975666;28;45439;-70
2021/10/01 04:33:54;;;;;;;;;3.00;2.00;;;;;11.44;67.73;101635.81;4968244;28;45416;-70
2021/10/01 04:36:22;;;;;;;;;2.75;1.75;;;;;11.41;68.06;101631.50;4964939;28;46204;-70
2021/10/01 04:38:47;;;;;;;;;1.00;1.00;;;;;11.44;68.03;101625.28;4968371;28;45420;-71
2021/10/01 04:41:12;;;;;;;;;2.50;2.00;;;;;11.39;67.90;101622.81;4975915;28;45800;-71
2021/10/01 04:43:39;;;;;;;;;1.50;1.50;;;;;11.41;68.28;101623.59;4975575;28;45429;-70
2021/10/01 04:46:04;;;;;;;;;1.00;1.00;;;;;11.46;68.18;101634.00;4969960;28;46971;-70
2021/10/01 04:48:30;;;;;;;;;1.75;1.75;;;;;11.44;67.92;101631.41;4975029;28;45503;-70
2021/10/01 04:50:55;;;;;;;;;1.75;1.75;;;;;11.45;68.36;101638.41;4973376;28;45507;-71
2021/10/01 04:53:20;;;;;;;;;1.00;1.00;;;;;11.47;68.41;101635.69;4975623;28;45387;-70
2021/10/01 04:55:46;;;;;;;;;3.25;2.00;;;;;11.46;68.51;101634.00;4965434;28;49407;-70
2021/10/01 04:58:12;;;;;;;;;2.50;1.25;;;;;11.44;68.18;101630.56;4972358;28;45371;-70
2021/10/01 05:00:39;;;;;;;;;1.00;0.75;;;;;11.46;68.13;101626.94;4968556;28;45552;-70
2021/10/01 05:03:04;;;;;;;;;1.00;1.00;;;;;11.47;68.74;101638.34;4974977;28;45511;-70
2021/10/01 05:05:30;;;;;;;;;3.25;3.00;;;;;11.44;68.38;101630.56;4968599;28;48211;-71
2021/10/01 05:07:55;;;;;;;;;1.25;1.00;;;;;11.43;68.48;101627.06;4975687;28;45524;-70
2021/10/01 05:10:21;;;;;;;;;1.00;1.00;;;;;11.48;68.67;101637.41;4964632;28;45294;-71
2021/10/01 05:12:46;;;;;;;;;4.00;2.50;;;;;11.44;68.71;101634.06;4969348;28;45472;-71
2021/10/01 05:15:12;;;;;;;;;3.00;2.25;;;;;11.46;68.62;101637.47;4976991;28;47138;-70
2021/10/01 05:17:39;;;;;;;;;1.00;1.00;;;;;11.47;69.19;101638.34;4963852;28;45601;-70
2021/10/01 05:20:08;;;;;;;;;2.00;2.00;;;;;11.44;68.79;101634.06;4964060;28;45517;-71
2021/10/01 05:22:34;;;;;;;;;3.00;1.75;;;;;11.44;68.73;101631.41;4977147;28;45646;-70
2021/10/01 05:25:01;;;;;;;;;3.25;1.75;;;;;11.39;68.83;101622.81;4968368;28;46221;-71
2021/10/01 05:27:27;;;;;;;;;4.00;2.00;;;;;11.39;68.49;101627.22;4964420;28;45425;-70
2021/10/01 05:29:52;;;;;;;;;2.00;1.00;;;;;11.39;68.74;101629.84;4965789;28;45511;-70
2021/10/01 05:32:17;;;;;;;;;3.75;2.00;;;;;11.37;68.70;101629.00;4972084;28;46638;-71
2021/10/01 05:34:43;;;;;;;;;1.50;1.50;;;;;11.34;68.72;101619.47;4967566;28;45415;-71
2021/10/01 05:37:08;;;;;;;;;2.25;1.00;;;;;11.33;69.12;101632.66;4968714;28;49990;-70
2021/10/01 05:39:33;;;;;;;;;2.00;2.00;;;;;11.30;69.34;101622.22;4970037;28;45948;-71
2021/10/01 05:41:59;;;;;;;;;2.00;2.00;;;;;11.31;69.14;101623.94;4974624;28;45442;-70
2021/10/01 05:44:25;;;;;;;;;2.25;1.00;;;;;11.28;69.02;101629.31;4962979;28;46181;-71
2021/10/01 05:46:50;;;;;;;;;2.25;1.50;;;;;11.20;69.33;101621.66;4968432;28;45491;-70
2021/10/01 05:49:31;;;;;;;;;2.00;2.00;;;;;11.18;69.55;101618.22;4969426;28;45715;-70
2021/10/01 05:52:12;;;;;;;;;3.50;2.00;;;;;11.21;69.35;101616.34;4984916;28;45400;-70
2021/10/01 05:54:38;;;;;;;;;4.25;3.00;;;;;11.21;69.52;101610.22;4972731;28;45512;-70
2021/10/01 05:57:03;;;;;;;;;2.50;2.00;;;;;11.19;69.26;101612.91;4964275;28;45534;-71
2021/10/01 05:59:29;;;;;;;;;2.00;2.00;;;;;11.29;69.82;101612.63;4968793;28;45558;-70
2021/10/01 06:01:55;;;;;;;;;2.00;2.00;;;;;11.28;69.47;101611.78;4969718;28;45424;-71
2021/10/01 06:04:20;;;;;;;;;2.00;2.00;;;;;11.41;69.57;101618.34;4965515;28;50137;-71
2021/10/01 06:06:46;;;;;;;;;3.00;3.00;;;;;11.40;69.27;101607.88;4973253;28;45401;-71
2021/10/01 06:09:13;;;;;;;;;3.00;3.00;;;;;11.47;69.07;101604.97;4973328;28;45507;-71
2021/10/01 06:11:39;;;;;;;;;2.00;2.00;;;;;11.49;69.11;101597.06;4973711;28;45564;-71
2021/10/01 06:14:07;;;;;;;;;2.00;2.00;;;;;11.54;69.04;101608.28;4962021;28;48597;-71
2021/10/01 06:16:32;;;;;;;;;2.00;2.00;;;;;11.58;69.13;101612.53;4972956;28;45432;-71
2021/10/01 06:18:58;;;;;;;;;4.00;3.00;;;;;11.60;69.40;101610.72;4965417;28;45456;-69
2021/10/01 06:21:23;;;;;;;;;2.50;2.50;;;;;11.62;69.59;101611.50;4964824;28;45725;-71
2021/10/01 06:23:49;;;;;;;;;3.25;2.50;;;;;11.65;69.33;101616.69;4961081;28;57645;-70
2021/10/01 06:26:14;;;;;;;;;3.00;2.00;;;;;11.69;68.95;101618.31;4963509;28;45358;-70
2021/10/01 06:28:40;;;;;;;;;3.00;1.75;;;;;11.70;68.92;101617.41;4971519;28;45423;-70
2021/10/01 06:31:05;;;;;;;;;2.25;1.75;;;;;11.72;69.33;101614.69;4964857;28;45514;-70
2021/10/01 06:33:31;;;;;;;;;2.00;2.00;;;;;11.77;69.06;101604.88;4963634;28;45915;-71
2021/10/01 06:35:57;;;;;;;;;2.75;2.75;;;;;11.79;69.19;101605.66;4975400;28;45565;-70
2021/10/01 06:38:23;;;;;;;;;3.75;3.00;;;;;11.91;69.51;101609.72;4973409;28;45289;-71
2021/10/01 06:40:48;;;;;;;;;2.75;2.75;;;;;12.02;69.39;101612.84;4973704;28;45340;-71
2021/10/01 06:43:16;;;;;;;;;3.75;2.00;;;;;12.08;69.14;101596.81;4971576;28;46041;-71
2021/10/01 06:45:43;;;;;;;;;2.00;2.00;;;;;12.27;68.36;101600.50;4969015;28;45499;-71
2021/10/01 07:34:51;;;;;;;;;4.00;4.00;;;;;16.67;58.99;101586.75;4975966;28;45637;-72
2021/10/01 08:21:12;;;;;;;;;3.00;2.00;;;;;26.31;45.02;101552.31;4934031;28;46076;-71
2021/10/01 08:23:38;;;;;;;;;2.75;2.75;;;;;26.96;44.18;101553.09;4933976;28;45488;-71
2021/10/01 08:26:04;;;;;;;;;3.00;1.00;;;;;27.36;42.49;101556.38;4933790;28;45516;-72
2021/10/01 08:28:29;;;;;;;;;3.75;3.00;;;;;26.63;41.62;101551.91;4935351;28;45583;-72
2021/10/01 08:30:57;;;;;;;;;3.00;2.25;;;;;26.19;42.75;101548.94;4932552;28;48346;-72
2021/10/01 08:33:22;;;;;;;;;2.75;2.50;;;;;26.12;42.30;101539.75;4933061;28;45639;-71
2021/10/01 08:35:47;;;;;;;;;4.25;3.00;;;;;25.39;42.54;101544.00;4952847;28;45326;-71
2021/10/01 08:38:13;;;;;;;;;1.25;1.25;;;;;24.81;43.22;101543.94;4977894;28;46977;-71
2021/10/01 08:40:38;;;;;;;;;5.00;3.50;;;;;24.85;43.97;101530.09;4975529;28;45563;-72
2021/10/01 08:43:04;;;;;;;;;5.00;2.00;;;;;26.77;43.99;101532.50;4974749;28;46293;-72
2021/10/01 08:45:29;;;;;;;;;3.75;1.50;;;;;28.55;40.72;101525.06;4974546;28;45388;-69
2021/10/01 08:47:57;;;;;;;;;3.00;2.00;;;;;29.30;39.11;101531.31;4974716;28;45487;-72
2021/10/01 08:50:24;;;;;;;;;3.00;3.00;;;;;28.62;38.91;101523.41;4974053;28;48210;-70
2021/10/01 08:52:50;;;;;;;;;3.75;1.25;;;;;28.70;37.96;101527.97;4975451;28;45369;-71
2021/10/01 08:55:16;;;;;;;;;2.00;2.00;;;;;29.09;37.35;101525.56;4975120;28;45447;-71
2021/10/01 08:57:42;;;;;;;;;2.00;2.00;;;;;28.76;37.51;101527.31;4975299;28;45471;-72
2021/10/01 09:00:13;;;;;;;;;3.50;2.50;;;;;28.30;37.07;101521.41;4975380;28;45436;-72
2021/10/01 09:02:39;;;;;;;;;2.00;1.25;;;;;27.03;36.88;101518.25;4973373;28;45483;-69
2021/10/01 09:05:06;;;;;;;;;2.00;2.00;;;;;25.52;38.77;101517.63;4975762;28;45347;-72
2021/10/01 09:07:31;;;;;;;;;1.00;0.25;;;;;24.47;40.48;101517.38;4972015;28;45330;-71
2021/10/01 09:09:57;;;;;;;;;0.00;0.00;;;;;23.82;41.09;101518.66;4974962;28;45422;-72
2021/10/01 09:12:23;;;;;;;;;1.25;1.25;;;;;23.11;41.97;101513.00;4974588;28;45576;-71
2021/10/01 09:14:52;;;;;;;;;1.25;1.25;;;;;22.44;43.06;101508.66;4972237;28;45431;-71
2021/10/01 09:17:21;;;;;;;;;3.00;1.00;;;;;21.67;44.10;101499.63;4967267;28;46394;-71
2021/10/01 09:19:48;;;;;;;;;4.25;2.00;;;;;20.95;45.07;101508.59;4974063;28;46187;-71
2021/10/01 09:22:29;;;;;;;;;4.00;2.00;;;;;20.37;46.70;101502.13;4968821;28;45388;-71
2021/10/01 09:25:21;;;;;;;;;2.50;1.25;;;;;19.92;47.87;101504.41;4969641;28;45479;-71
2021/10/01 09:27:48;;;;;;;;;3.75;2.00;;;;;19.61;48.88;101507.50;4967874;28;45562;-71
2021/10/01 09:30:18;;;;;;;;;4.25;4.00;;;;;19.36;49.44;101510.94;4974445;28;45574;-71
2021/10/01 09:33:06;;;;;;;;;3.25;1.75;;;;;19.29;49.88;101503.38;4972254;28;45641;-71
2021/10/01 09:35:32;;;;;;;;;3.00;1.75;;;;;19.66;50.29;101503.56;4974179;28;45457;-71
2021/10/01 09:38:05;;;;;;;;;2.75;1.25;;;;;19.64;50.56;101504.66;4975676;28;45580;-72
2021/10/01 09:40:32;;;;;;;;;3.00;3.00;;;;;19.70;50.23;101512.22;4969822;28;46896;-71
2021/10/01 09:42:57;;;;;;;;;2.00;2.00;;;;;19.78;50.58;101502.72;4969659;28;45763;-71
2021/10/01 09:45:23;;;;;;;;;1.00;1.00;;;;;19.79;50.64;101488.44;4966392;28;45393;-71
2021/10/01 09:47:49;;;;;;;;;1.25;1.25;;;;;19.77;50.78;101494.81;4974663;28;45448;-71
2021/10/01 09:50:27;;;;;;;;;5.75;2.25;;;;;19.73;51.24;101495.97;4974720;28;46068;-72
2021/10/01 09:52:57;;;;;;;;;4.25;1.25;;;;;19.70;52.04;101501.56;4971886;28;45312;-71
2021/10/01 09:55:29;;;;;;;;;5.00;1.00;;;;;19.53;51.92;101490.19;4969987;28;45590;-72
2021/10/01 09:57:59;;;;;;;;;2.75;2.00;;;;;19.34;52.62;101494.22;4967195;28;45496;-72
2021/10/01 10:00:43;;;;;;;;;1.75;1.75;;;;;19.21;53.02;101492.41;4965866;28;46508;-72
2021/10/01 10:03:23;;;;;;;;;3.00;2.75;;;;;19.06;54.12;101492.56;4974826;28;45755;-72
2021/10/01 10:06:10;;;;;;;;;1.75;1.00;;;;;18.92;55.30;101499.66;4974608;28;45325;-72
2021/10/01 10:08:37;;;;;;;;;3.00;3.00;;;;;18.84;56.05;101493.09;4967338;28;45480;-72
2021/10/01 10:11:06;;;;;;;;;1.75;1.75;;;;;18.84;56.58;101495.75;4975248;28;45458;-72
2021/10/01 10:13:47;;;;;;;;;5.00;2.50;;;;;18.78;55.91;101503.19;4973980;28;45756;-72
2021/10/01 10:16:16;;;;;;;;;4.00;2.00;;;;;18.66;56.29;101503.13;4973930;28;45455;-69
2021/10/01 10:18:42;;;;;;;;;2.25;1.50;;;;;18.56;57.03;101492.22;4974411;28;45377;-72
2021/10/01 10:21:08;;;;;;;;;1.25;1.25;;;;;18.61;56.75;101494.56;4974704;28;48740;-71
2021/10/01 10:23:34;;;;;;;;;2.25;2.25;;;;;18.64;57.38;101491.72;4972499;28;45436;-71
2021/10/01 10:26:00;;;;;;;;;3.00;2.25;;;;;18.61;57.37;101495.44;4977945;28;45797;-71
2021/10/01 10:28:25;;;;;;;;;1.00;1.00;;;;;18.54;56.78;101488.81;4977908;28;45690;-71
2021/10/01 10:30:52;;;;;;;;;3.25;2.75;;;;;18.53;57.19;101495.06;4977490;28;45574;-71
2021/10/01 10:33:37;;;;;;;;;3.00;2.00;;;;;18.45;57.14;101487.56;4977837;28;45324;-71
2021/10/01 10:36:28;;;;;;;;;2.00;1.00;;;;;18.38;57.54;101475.63;4974364;28;45738;-71
2021/10/01 10:39:00;;;;;;;;;2.00;2.00;;;;;18.38;57.38;101472.97;4965170;28;45507;-71
2021/10/01 10:41:29;;;;;;;;;4.50;2.00;;;;;18.48;58.43;101482.06;4974688;28;46361;-71
2021/10/01 10:43:56;;;;;;;;;5.00;3.00;;;;;18.60;57.57;101482.22;4969118;28;45679;-71
2021/10/01 10:46:36;;;;;;;;;1.75;1.75;;;;;18.70;58.57;101476.25;4969491;28;45361;-71
2021/10/01 10:49:24;;;;;;;;;1.25;0.50;;;;;18.94;57.97;101476.41;4973905;28;45381;-71
2021/10/01 10:52:08;;;;;;;;;2.00;2.00;;;;;19.33;56.98;101468.53;4974532;28;46338;-72
2021/10/01 10:54:36;;;;;;;;;4.00;1.00;;;;;19.82;56.28;101460.69;4970607;28;45984;-72
2021/10/01 10:57:17;;;;;;;;;2.00;2.00;;;;;20.05;55.64;101453.72;4972955;28;45834;-72
2021/10/01 10:59:43;;;;;;;;;2.00;0.50;;;;;20.04;55.44;101444.00;4975255;28;45479;-70
2021/10/01 11:02:41;;;;;;;;;4.50;1.75;;;;;19.99;55.15;101441.69;4958488;28;45631;-71
2021/10/01 11:05:24;;;;;;;;;3.00;1.25;;;;;19.86;55.11;101440.84;4971029;28;45667;-72
2021/10/01 11:07:57;;;;;;;;;2.50;1.00;;;;;19.70;55.05;101430.41;4972519;28;45587;-71
2021/10/01 11:10:47;;;;;;;;;0.25;0.25;;;;;19.48;55.51;101441.69;4973926;28;45504;-72
2021/10/01 11:13:18;;;;;;;;;0.25;0.25;;;;;19.34;55.35;101448.91;4967057;28;46128;-72
2021/10/01 11:16:06;;;;;;;;;2.00;1.75;;;;;19.08;55.50;101450.69;4975001;28;45604;-72
2021/10/01 11:18:31;;;;;;;;;1.00;1.00;;;;;18.91;56.62;101438.50;4978740;28;46128;-72
2021/10/01 11:20:57;;;;;;;;;0.75;0.75;;;;;18.81;57.27;101430.25;4970295;28;45387;-72
2021/10/01 11:23:22;;;;;;;;;1.50;0.75;;;;;18.80;58.19;101433.03;4972195;28;46209;-72
2021/10/01 11:25:49;;;;;;;;;1.00;1.00;;;;;18.68;58.02;101422.22;4970183;28;45499;-72
2021/10/01 11:28:15;;;;;;;;;1.00;1.00;;;;;18.62;58.75;101433.25;4988255;28;45522;-72
2021/10/01 11:30:47;;;;;;;;;1.75;1.00;;;;;18.66;59.04;101421.44;4969413;28;45456;-72
2021/10/01 11:33:14;;;;;;;;;2.00;2.00;;;;;18.78;58.90;101401.16;4968505;28;46397;-72
2021/10/01 11:35:51;;;;;;;;;4.00;1.00;;;;;19.20;59.08;101412.53;4973277;28;45742;-72
2021/10/01 11:38:29;;;;;;;;;1.50;1.00;;;;;19.33;58.26;101408.09;4970378;28;45734;-72
2021/10/01 11:41:23;;;;;;;;;2.00;0.75;;;;;19.30;57.65;101397.63;4974394;28;46107;-72
2021/10/01 11:43:53;;;;;;;;;2.50;1.00;;;;;19.30;57.81;101401.13;4952171;28;46287;-71
2021/10/01 11:46:35;;;;;;;;;5.50;4.00;;;;;19.17;57.37;101384.31;4973797;28;45464;-71
2021/10/01 11:49:03;;;;;;;;;2.75;1.00;;;;;19.29;58.20;101399.44;4975923;28;45341;-72
2021/10/01 11:51:30;;;;;;;;;1.00;1.00;;;;;19.35;58.24;101397.31;4971844;28;45539;-72
2021/10/01 11:54:06;;;;;;;;;1.00;0.50;;;;;19.34;57.54;101388.47;4973906;28;46366;-72
2021/10/01 11:56:31;;;;;;;;;2.00;0.25;;;;;19.29;57.67;101383.44;4972558;28;45830;-72
2021/10/01 11:58:56;;;;;;;;;1.00;1.00;;;;;19.30;57.64;101381.63;4970239;28;45397;-72
2021/10/01 12:01:22;;;;;;;;;2.00;1.00;;;;;19.24;57.91;101369.59;4975103;28;45701;-71
2021/10/01 12:03:55;;;;;;;;;2.00;0.25;;;;;19.43;58.17;101370.97;4987190;28;47323;-72
2021/10/01 12:06:23;;;;;;;;;3.00;2.00;;;;;19.68;57.41;101363.00;4967306;28;45753;-72
2021/10/01 12:09:01;;;;;;;;;0.75;0.75;;;;;19.76;57.25;101360.63;4969258;28;45397;-72
2021/10/01 12:11:32;;;;;;;;;0.50;0.50;;;;;19.82;58.13;101364.66;4973029;28;45438;-71
2021/10/01 12:14:12;;;;;;;;;1.00;1.00;;;;;20.07;57.22;101361.91;4975935;28;46577;-72
2021/10/01 12:16:39;;;;;;;;;1.50;1.00;;;;;20.32;56.95;101360.13;4976454;28;45397;-72
2021/10/01 12:19:05;;;;;;;;;5.00;1.00;;;;;20.48;56.32;101362.53;4975519;28;45794;-72
2021/10/01 12:21:35;;;;;;;;;1.50;0.00;;;;;20.63;56.54;101364.06;4974329;28;45341;-72
2021/10/01 12:24:01;;;;;;;;;2.00;1.25;;;;;20.88;56.45;101365.75;4971852;28;46850;-72
2021/10/01 12:26:31;;;;;;;;;0.00;0.00;;;;;20.99;55.41;101363.09;4964182;28;45403;-72
2021/10/01 12:29:25;;;;;;;;;1.50;0.25;;;;;20.93;54.80;101363.53;4967051;28;45416;-72
2021/10/01 12:31:55;;;;;;;;;1.50;0.25;;;;;20.84;54.87;101358.91;4966385;28;45403;-72
2021/10/01 12:34:24;;;;;;;;;1.00;1.00;;;;;20.87;55.14;101361.34;4973885;28;45500;-72
2021/10/01 12:36:56;;;;;;;;;2.25;1.00;;;;;20.87;55.01;101356.00;4975843;28;45507;-72
2021/10/01 12:39:24;;;;;;;;;0.50;0.50;;;;;20.86;55.45;101338.28;4976126;28;45310;-72
2021/10/01 12:42:01;;;;;;;;;0.25;0.25;;;;;20.86;55.17;101343.63;4974258;28;45401;-72
2021/10/01 12:44:28;;;;;;;;;1.00;1.00;;;;;20.85;55.50;101345.44;4964736;28;46485;-72
2021/10/01 12:46:55;;;;;;;;;0.50;0.50;;;;;20.79;55.36;101345.06;4967310;28;45382;-72
2021/10/01 12:49:22;;;;;;;;;6.25;5.50;;;;;20.63;55.52;101337.38;4971250;28;45701;-72
2021/10/01 12:52:11;;;;;;;;;1.00;1.00;;;;;20.52;55.60;101337.31;4970503;28;45564;-71
2021/10/01 12:54:56;;;;;;;;;1.50;0.00;;;;;20.43;55.65;101333.47;4970723;28;46365;-71
2021/10/01 12:57:32;;;;;;;;;2.00;1.75;;;;;20.46;56.05;101321.72;4971478;28;45909;-72
2021/10/01 13:00:01;;;;;;;;;3.00;0.50;;;;;20.52;55.75;101308.81;4974753;28;45320;-72
2021/10/01 13:02:33;;;;;;;;;1.25;0.50;;;;;20.59;55.31;101312.69;4974610;28;45301;-72
2021/10/01 13:05:02;;;;;;;;;1.00;0.75;;;;;20.58;55.63;101308.34;4972810;28;46822;-72
2021/10/01 13:07:34;;;;;;;;;1.00;1.00;;;;;20.59;56.25;101315.38;4973333;28;45518;-71